Time;durP1;ratioP1;P1;durP2;ratioP2;P2;SDS_P1;SDS_P2;PMS_P1;PMS_P2;Temp;Humidity;BMP_temperature;BMP_pressure;BME280_temperature;BME280_humidity;BME280_pressure;Samples;Min_cycle;Max_cycle;Signal;HPM_P1;HPM_P2
2022/12/14 00:01:58;;;;;;;38.73;20.37;;;;;;;;;;4959510;28;20480;-67
2022/12/14 00:04:23;;;;;;;40.10;21.37;;;;;;;;;;4940936;28;20095;-68
2022/12/14 00:06:48;;;;;;;44.03;19.53;;;;;;;;;;4925328;28;20042;-68
2022/12/14 00:09:13;;;;;;;37.67;20.83;;;;;;;;;;4924766;28;20031;-69
2022/12/14 00:11:39;;;;;;;41.43;21.97;;;;;;;;;;4941703;28;20049;-67
2022/12/14 00:14:04;;;;;;;39.90;20.70;;;;;;;;;;4958330;28;20575;-67
2022/12/14 00:16:34;;;;;;;40.53;20.67;;;;;;;;;;4958728;28;20533;-68
2022/12/14 00:19:04;;;;;;;37.13;19.47;;;;;;;;;;4958667;28;20057;-67
2022/12/14 00:21:29;;;;;;;39.73;20.13;;;;;;;;;;4941043;28;20303;-69
2022/12/14 00:23:57;;;;;;;41.03;21.40;;;;;;;;;;4959115;28;20636;-67
2022/12/14 00:26:32;;;;;;;35.73;19.50;;;;;;;;;;4958734;28;20042;-68
2022/12/14 00:28:58;;;;;;;40.63;19.97;;;;;;;;;;4958326;28;20134;-69
2022/12/14 00:31:28;;;;;;;34.53;19.67;;;;;;;;;;4958393;28;20040;-68
2022/12/14 00:33:54;;;;;;;37.23;19.80;;;;;;;;;;4958833;28;20548;-67
2022/12/14 00:36:20;;;;;;;37.47;20.50;;;;;;;;;;4958135;28;20392;-67
2022/12/14 00:38:46;;;;;;;39.67;20.40;;;;;;;;;;4959115;28;20747;-68
2022/12/14 00:41:11;;;;;;;39.20;19.73;;;;;;;;;;4958363;28;20042;-68
2022/12/14 00:43:39;;;;;;;34.63;19.70;;;;;;;;;;4958235;28;20592;-66
2022/12/14 00:46:05;;;;;;;36.40;19.70;;;;;;;;;;4958166;28;20046;-67
2022/12/14 00:48:30;;;;;;;39.10;19.90;;;;;;;;;;4957018;28;20050;-69
2022/12/14 00:50:56;;;;;;;39.67;19.23;;;;;;;;;;4958167;28;20095;-68
2022/12/14 00:53:25;;;;;;;40.90;20.37;;;;;;;;;;4940604;28;20042;-67
2022/12/14 00:55:51;;;;;;;35.97;19.13;;;;;;;;;;4957671;28;20030;-67
2022/12/14 00:58:17;;;;;;;38.03;18.90;;;;;;;;;;4959372;28;20030;-67
2022/12/14 01:00:56;;;;;;;37.27;18.67;;;;;;;;;;4960420;28;20122;-66
2022/12/14 01:03:22;;;;;;;37.93;18.63;;;;;;;;;;4960660;28;20057;-68
2022/12/14 01:05:49;;;;;;;31.33;17.93;;;;;;;;;;4960923;28;20039;-67
2022/12/14 01:08:17;;;;;;;36.30;18.53;;;;;;;;;;4943562;28;20060;-69
2022/12/14 01:10:43;;;;;;;37.23;17.73;;;;;;;;;;4959859;28;20163;-69
2022/12/14 01:13:09;;;;;;;39.30;19.47;;;;;;;;;;4927733;28;20503;-67
2022/12/14 01:15:35;;;;;;;37.73;19.20;;;;;;;;;;4960776;28;20433;-65
2022/12/14 01:18:00;;;;;;;30.80;18.47;;;;;;;;;;4960772;28;20057;-67
2022/12/14 01:20:25;;;;;;;32.70;17.93;;;;;;;;;;4960675;28;20169;-68
2022/12/14 01:22:57;;;;;;;32.47;17.33;;;;;;;;;;4943821;28;20278;-69
2022/12/14 01:25:23;;;;;;;34.22;17.50;;;;;;;;;;4960327;28;20730;-68
2022/12/14 01:27:48;;;;;;;33.10;16.63;;;;;;;;;;4943633;28;20031;-68
2022/12/14 01:30:13;;;;;;;34.83;17.60;;;;;;;;;;4960592;28;20033;-67
2022/12/14 01:32:39;;;;;;;32.00;16.43;;;;;;;;;;4958377;28;20306;-68
2022/12/14 01:35:05;;;;;;;32.23;16.60;;;;;;;;;;4960920;28;20274;-67
2022/12/14 01:37:31;;;;;;;29.50;15.17;;;;;;;;;;4961251;28;20269;-68
2022/12/14 01:39:56;;;;;;;33.00;16.07;;;;;;;;;;4942601;28;20419;-68
2022/12/14 01:42:22;;;;;;;28.93;15.20;;;;;;;;;;4961201;28;20095;-68
2022/12/14 01:44:50;;;;;;;32.43;15.97;;;;;;;;;;4942640;28;20519;-67
2022/12/14 01:47:18;;;;;;;28.40;14.87;;;;;;;;;;4955023;28;20042;-67
2022/12/14 01:49:53;;;;;;;30.53;15.37;;;;;;;;;;4961021;28;20494;-67
2022/12/14 01:52:30;;;;;;;26.30;14.03;;;;;;;;;;4961146;28;20220;-67
2022/12/14 01:55:01;;;;;;;29.17;15.70;;;;;;;;;;4942301;28;20326;-68
2022/12/14 01:57:30;;;;;;;31.30;15.40;;;;;;;;;;4941945;28;20163;-67
2022/12/14 01:59:59;;;;;;;27.13;14.83;;;;;;;;;;4955859;28;20051;-69
2022/12/14 02:02:24;;;;;;;30.40;15.80;;;;;;;;;;4955961;28;20038;-67
2022/12/14 02:04:54;;;;;;;28.17;15.43;;;;;;;;;;4941341;28;20540;-67
2022/12/14 02:07:22;;;;;;;28.77;14.50;;;;;;;;;;4941652;28;20043;-68
2022/12/14 02:09:48;;;;;;;27.90;14.03;;;;;;;;;;4941340;28;20051;-66
2022/12/14 02:12:16;;;;;;;28.63;15.17;;;;;;;;;;4942191;28;20039;-67
2022/12/14 02:14:42;;;;;;;26.30;14.37;;;;;;;;;;4941250;28;20035;-67
2022/12/14 02:17:09;;;;;;;27.50;14.03;;;;;;;;;;4942001;28;20046;-67
2022/12/14 02:19:35;;;;;;;29.03;14.50;;;;;;;;;;4941504;28;20584;-68
2022/12/14 02:22:19;;;;;;;25.63;14.57;;;;;;;;;;4939790;28;20039;-68
2022/12/14 02:24:47;;;;;;;27.10;14.13;;;;;;;;;;4940997;28;20031;-67
2022/12/14 02:27:32;;;;;;;26.87;15.03;;;;;;;;;;4941130;28;20046;-66
2022/12/14 02:30:03;;;;;;;29.10;14.60;;;;;;;;;;4958650;28;20057;-69
2022/12/14 02:32:34;;;;;;;28.37;15.47;;;;;;;;;;4959998;28;20297;-68
2022/12/14 02:35:00;;;;;;;29.80;14.93;;;;;;;;;;4960159;28;20489;-70
2022/12/14 02:37:37;;;;;;;31.20;15.93;;;;;;;;;;4959870;28;20065;-67
2022/12/14 02:40:07;;;;;;;30.13;15.40;;;;;;;;;;4943018;28;20030;-68
2022/12/14 02:42:35;;;;;;;31.03;16.57;;;;;;;;;;4959877;28;20044;-67
2022/12/14 02:45:11;;;;;;;30.60;16.17;;;;;;;;;;4942790;28;20030;-68
2022/12/14 02:47:39;;;;;;;31.70;16.27;;;;;;;;;;4959253;28;20235;-67
2022/12/14 02:50:17;;;;;;;32.30;17.03;;;;;;;;;;4959722;28;20042;-67
2022/12/14 02:52:56;;;;;;;29.33;16.27;;;;;;;;;;4959173;28;20316;-67
2022/12/14 02:55:27;;;;;;;31.77;16.47;;;;;;;;;;4959441;28;20050;-67
2022/12/14 02:58:02;;;;;;;29.57;16.43;;;;;;;;;;4959386;28;20034;-68
2022/12/14 03:00:32;;;;;;;29.00;15.90;;;;;;;;;;4959339;28;20372;-67
2022/12/14 03:02:57;;;;;;;32.23;16.90;;;;;;;;;;4941538;28;20326;-67
2022/12/14 03:05:25;;;;;;;32.90;17.20;;;;;;;;;;4942042;28;20548;-68
2022/12/14 03:07:59;;;;;;;29.40;16.33;;;;;;;;;;4958494;28;20035;-69
2022/12/14 03:10:43;;;;;;;31.20;17.40;;;;;;;;;;4957605;28;20604;-67
2022/12/14 03:13:20;;;;;;;29.03;16.10;;;;;;;;;;4957699;28;20127;-67
2022/12/14 03:15:51;;;;;;;29.30;16.40;;;;;;;;;;4958965;28;20306;-67
2022/12/14 03:18:22;;;;;;;34.42;17.33;;;;;;;;;;4957882;28;20195;-68
2022/12/14 03:20:49;;;;;;;28.77;15.83;;;;;;;;;;4958658;28;20041;-68
2022/12/14 03:23:19;;;;;;;30.50;15.80;;;;;;;;;;4959435;28;20061;-67
2022/12/14 03:26:08;;;;;;;29.70;17.03;;;;;;;;;;4955066;28;20145;-67
2022/12/14 03:28:42;;;;;;;32.83;16.97;;;;;;;;;;4968186;28;20341;-68
2022/12/14 03:31:21;;;;;;;34.27;17.10;;;;;;;;;;4959159;28;20137;-68
2022/12/14 03:33:50;;;;;;;30.83;16.73;;;;;;;;;;4959107;28;20291;-68
2022/12/14 03:36:24;;;;;;;33.67;17.23;;;;;;;;;;4959418;28;20430;-68
2022/12/14 03:38:54;;;;;;;31.27;17.47;;;;;;;;;;4959399;28;20044;-68
2022/12/14 03:41:25;;;;;;;33.10;18.07;;;;;;;;;;4958924;28;20548;-67
2022/12/14 03:44:12;;;;;;;38.20;19.48;;;;;;;;;;4959224;28;20252;-68
2022/12/14 03:46:49;;;;;;;32.47;17.40;;;;;;;;;;4959117;28;20034;-67
2022/12/14 03:49:23;;;;;;;31.60;17.87;;;;;;;;;;5022892;28;20424;-68
2022/12/14 03:51:53;;;;;;;35.93;18.77;;;;;;;;;;5040291;28;20355;-68
2022/12/14 03:54:45;;;;;;;33.87;17.93;;;;;;;;;;5040620;28;20488;-68
2022/12/14 03:57:31;;;;;;;33.30;17.80;;;;;;;;;;4986520;28;20043;-68
2022/12/14 04:00:00;;;;;;;35.43;17.70;;;;;;;;;;5041353;28;20033;-69
2022/12/14 04:02:38;;;;;;;32.60;17.80;;;;;;;;;;5040820;28;20476;-69
2022/12/14 04:05:13;;;;;;;34.23;18.03;;;;;;;;;;5040494;28;20118;-68
2022/12/14 04:07:38;;;;;;;40.10;19.50;;;;;;;;;;5021907;28;20402;-68
2022/12/14 04:18:55;;;;;;;35.57;19.17;;;;;;;;;;5040659;28;20025;-69
2022/12/14 04:21:25;;;;;;;34.73;18.30;;;;;;;;;;5040469;28;20025;-69
2022/12/14 04:26:41;;;;;;;36.13;18.70;;;;;;;;;;5040066;28;20037;-68
2022/12/14 04:31:56;;;;;;;38.13;19.70;;;;;;;;;;5040260;28;20033;-68
2022/12/14 04:34:26;;;;;;;36.63;19.90;;;;;;;;;;5043172;28;20051;-68
2022/12/14 04:36:57;;;;;;;38.30;19.67;;;;;;;;;;5043797;28;20183;-69
2022/12/14 04:39:34;;;;;;;39.27;20.20;;;;;;;;;;5043381;28;20064;-69
2022/12/14 04:42:03;;;;;;;39.50;20.20;;;;;;;;;;5043929;28;20278;-68
2022/12/14 04:44:31;;;;;;;36.00;18.97;;;;;;;;;;5043338;28;20576;-69
2022/12/14 04:46:57;;;;;;;35.47;19.47;;;;;;;;;;5038103;28;20734;-68
2022/12/14 04:49:25;;;;;;;38.87;20.13;;;;;;;;;;4960044;28;20534;-69
2022/12/14 04:51:56;;;;;;;42.43;20.53;;;;;;;;;;4960981;28;20491;-68
2022/12/14 04:54:28;;;;;;;36.25;19.80;;;;;;;;;;4960680;28;20543;-68
2022/12/14 04:57:01;;;;;;;42.22;20.95;;;;;;;;;;4961194;28;20039;-69
2022/12/14 04:59:27;;;;;;;43.67;21.80;;;;;;;;;;4961118;28;20088;-69
2022/12/14 05:02:02;;;;;;;43.37;21.97;;;;;;;;;;4961884;28;20379;-70
2022/12/14 05:04:53;;;;;;;44.93;22.07;;;;;;;;;;4961132;28;20073;-69
2022/12/14 05:07:19;;;;;;;40.37;21.10;;;;;;;;;;4961610;28;20466;-68
2022/12/14 05:09:48;;;;;;;38.57;20.60;;;;;;;;;;4961130;28;20042;-69
2022/12/14 05:12:24;;;;;;;40.80;20.50;;;;;;;;;;4960857;28;20041;-69
2022/12/14 05:15:11;;;;;;;42.40;21.20;;;;;;;;;;4961424;28;20034;-69
2022/12/14 05:17:38;;;;;;;40.23;21.03;;;;;;;;;;4959809;28;20587;-69
2022/12/14 05:20:11;;;;;;;41.00;21.30;;;;;;;;;;4960798;28;20508;-70
2022/12/14 05:22:37;;;;;;;44.92;22.00;;;;;;;;;;4960763;28;20034;-68
2022/12/14 05:25:03;;;;;;;46.37;22.27;;;;;;;;;;4961068;28;20106;-69
2022/12/14 05:27:29;;;;;;;44.37;22.03;;;;;;;;;;4941443;28;20496;-68
2022/12/14 05:29:54;;;;;;;43.83;23.03;;;;;;;;;;4942349;28;20282;-69
2022/12/14 05:32:20;;;;;;;42.47;22.43;;;;;;;;;;4941716;28;20035;-69
2022/12/14 05:34:50;;;;;;;40.60;21.53;;;;;;;;;;4942160;28;20126;-69
2022/12/14 05:37:19;;;;;;;42.50;21.60;;;;;;;;;;4940008;28;20673;-71
2022/12/14 05:39:45;;;;;;;43.87;21.50;;;;;;;;;;4924051;28;20049;-70
2022/12/14 05:42:13;;;;;;;40.67;20.63;;;;;;;;;;4924563;28;20033;-68
2022/12/14 05:44:42;;;;;;;41.10;22.43;;;;;;;;;;4941017;28;20568;-69
2022/12/14 05:47:07;;;;;;;40.10;21.30;;;;;;;;;;4942129;28;20331;-69
2022/12/14 05:49:33;;;;;;;38.83;20.93;;;;;;;;;;4943581;28;20457;-69
2022/12/14 05:51:58;;;;;;;46.63;22.73;;;;;;;;;;4960508;28;20034;-68
2022/12/14 05:54:23;;;;;;;43.43;22.50;;;;;;;;;;4927593;28;20034;-69
2022/12/14 05:56:51;;;;;;;39.83;20.97;;;;;;;;;;4927786;28;20035;-68
2022/12/14 05:59:16;;;;;;;43.53;22.47;;;;;;;;;;4960897;28;20514;-69
2022/12/14 06:01:42;;;;;;;41.17;21.67;;;;;;;;;;4960368;28;20040;-69
2022/12/14 06:04:09;;;;;;;41.93;21.77;;;;;;;;;;4961226;28;20061;-69
2022/12/14 06:06:34;;;;;;;46.47;22.77;;;;;;;;;;4943067;28;20048;-69
2022/12/14 06:09:00;;;;;;;41.57;21.50;;;;;;;;;;4960677;28;20030;-70
2022/12/14 06:11:25;;;;;;;45.47;22.03;;;;;;;;;;4960528;28;20486;-68
2022/12/14 06:13:50;;;;;;;40.43;21.40;;;;;;;;;;4926795;28;20602;-69
2022/12/14 06:16:17;;;;;;;40.60;21.00;;;;;;;;;;4942950;28;20065;-67
2022/12/14 06:18:50;;;;;;;42.00;22.50;;;;;;;;;;4960603;28;20579;-69
2022/12/14 06:21:17;;;;;;;39.30;21.33;;;;;;;;;;4960682;28;20045;-68
2022/12/14 06:23:43;;;;;;;44.20;21.77;;;;;;;;;;4959950;28;20050;-69
2022/12/14 06:26:08;;;;;;;42.30;21.57;;;;;;;;;;4943251;28;20050;-70
2022/12/14 06:28:34;;;;;;;44.87;22.27;;;;;;;;;;4943061;28;20043;-69
2022/12/14 06:30:59;;;;;;;44.30;21.27;;;;;;;;;;4943036;28;20083;-69
2022/12/14 06:33:27;;;;;;;41.57;22.17;;;;;;;;;;4960693;28;20030;-69
2022/12/14 06:35:55;;;;;;;40.33;21.57;;;;;;;;;;4960591;28;20030;-69
2022/12/14 06:38:21;;;;;;;43.37;21.90;;;;;;;;;;4959995;28;20039;-69
2022/12/14 06:40:46;;;;;;;41.83;20.87;;;;;;;;;;4960406;28;20061;-71
2022/12/14 06:43:11;;;;;;;41.60;21.03;;;;;;;;;;4959952;28;20230;-71
2022/12/14 06:45:37;;;;;;;40.33;21.40;;;;;;;;;;4959896;28;20256;-68
2022/12/14 06:48:03;;;;;;;39.53;19.70;;;;;;;;;;4959384;28;20571;-69
2022/12/14 06:50:31;;;;;;;42.07;21.90;;;;;;;;;;4960195;28;20034;-69
2022/12/14 06:52:56;;;;;;;43.63;20.17;;;;;;;;;;4959991;28;20195;-69
2022/12/14 06:55:22;;;;;;;41.10;21.60;;;;;;;;;;4957880;28;20043;-68
2022/12/14 06:57:51;;;;;;;40.67;22.00;;;;;;;;;;4958532;28;20654;-70
2022/12/14 07:00:19;;;;;;;41.97;21.23;;;;;;;;;;4959186;28;20091;-69
2022/12/14 07:02:49;;;;;;;41.83;21.30;;;;;;;;;;4959467;28;20027;-70
2022/12/14 07:05:15;;;;;;;39.93;21.13;;;;;;;;;;4960113;28;20163;-69
2022/12/14 07:07:42;;;;;;;44.17;21.83;;;;;;;;;;4958269;28;20988;-69
2022/12/14 07:10:08;;;;;;;41.03;22.63;;;;;;;;;;4942521;28;20039;-68
2022/12/14 07:12:34;;;;;;;42.20;21.13;;;;;;;;;;4959329;28;20503;-70
2022/12/14 07:14:59;;;;;;;47.80;21.73;;;;;;;;;;4942228;28;20039;-70
2022/12/14 07:17:24;;;;;;;40.90;21.70;;;;;;;;;;4959251;28;20133;-69
2022/12/14 07:19:49;;;;;;;44.33;22.37;;;;;;;;;;4959862;28;20095;-69
2022/12/14 07:22:15;;;;;;;40.67;21.27;;;;;;;;;;4959149;28;20026;-68
2022/12/14 07:24:42;;;;;;;39.50;22.07;;;;;;;;;;4959987;28;20881;-69
2022/12/14 07:27:07;;;;;;;44.60;21.87;;;;;;;;;;4941467;28;20123;-69
2022/12/14 07:29:32;;;;;;;43.37;21.60;;;;;;;;;;4959661;28;20366;-69
2022/12/14 07:32:00;;;;;;;39.87;20.40;;;;;;;;;;4959110;28;20148;-68
2022/12/14 07:34:25;;;;;;;38.07;20.83;;;;;;;;;;4958457;28;20065;-69
2022/12/14 07:36:51;;;;;;;38.10;20.40;;;;;;;;;;4941934;28;20494;-68
2022/12/14 07:39:19;;;;;;;38.37;19.00;;;;;;;;;;5025577;28;20403;-69
2022/12/14 07:41:46;;;;;;;36.63;19.37;;;;;;;;;;4959322;28;20031;-69
2022/12/14 07:44:12;;;;;;;39.60;20.83;;;;;;;;;;4958495;28;20134;-69
2022/12/14 07:46:37;;;;;;;46.33;20.77;;;;;;;;;;4959384;28;20264;-70
2022/12/14 07:49:03;;;;;;;40.73;20.60;;;;;;;;;;4958151;28;20527;-69
2022/12/14 07:51:40;;;;;;;45.53;20.10;;;;;;;;;;4959646;28;20154;-69
2022/12/14 07:54:05;;;;;;;38.47;19.43;;;;;;;;;;4959081;28;20118;-69
2022/12/14 07:56:35;;;;;;;34.60;18.60;;;;;;;;;;4957238;28;20038;-69
2022/12/14 07:59:01;;;;;;;40.57;20.27;;;;;;;;;;4957682;28;20594;-70
2022/12/14 08:01:30;;;;;;;38.87;20.27;;;;;;;;;;4957580;28;20102;-69
2022/12/14 08:04:00;;;;;;;39.10;18.23;;;;;;;;;;4959437;28;20473;-69
2022/12/14 08:06:27;;;;;;;;;;;;;;;;;;4961417;28;20204;-68
2022/12/14 08:08:53;;;;;;;43.43;19.23;;;;;;;;;;4965178;28;19917;-68
2022/12/14 08:11:21;;;;;;;39.70;19.77;;;;;;;;;;4965572;28;20080;-69
2022/12/14 08:13:46;;;;;;;43.23;21.40;;;;;;;;;;4965223;28;20031;-68
2022/12/14 08:16:12;;;;;;;40.07;21.13;;;;;;;;;;4966087;28;20042;-69
2022/12/14 08:18:38;;;;;;;41.37;21.00;;;;;;;;;;4964025;28;20137;-68
2022/12/14 08:21:06;;;;;;;39.50;20.50;;;;;;;;;;4965588;28;20031;-69
2022/12/14 08:23:31;;;;;;;45.37;22.13;;;;;;;;;;4965115;28;20030;-69
2022/12/14 08:25:58;;;;;;;41.47;22.47;;;;;;;;;;4965138;28;20042;-69
2022/12/14 08:28:24;;;;;;;45.40;23.37;;;;;;;;;;4965209;28;20475;-69
2022/12/14 08:30:49;;;;;;;47.60;22.13;;;;;;;;;;4965616;28;20026;-70
2022/12/14 08:33:15;;;;;;;45.57;21.73;;;;;;;;;;4965811;28;20030;-69
2022/12/14 08:35:41;;;;;;;42.70;20.90;;;;;;;;;;4965680;28;20166;-68
2022/12/14 08:38:06;;;;;;;39.63;21.23;;;;;;;;;;4965084;28;20031;-69
2022/12/14 08:40:37;;;;;;;44.67;20.97;;;;;;;;;;4947036;28;20038;-68
2022/12/14 08:43:06;;;;;;;44.37;22.13;;;;;;;;;;4965336;28;20026;-69
2022/12/14 08:45:31;;;;;;;47.13;21.00;;;;;;;;;;4947344;28;20662;-69
2022/12/14 08:47:57;;;;;;;40.90;21.33;;;;;;;;;;4947773;28;20123;-69
2022/12/14 08:50:23;;;;;;;41.00;20.87;;;;;;;;;;4965003;28;20091;-68
2022/12/14 08:52:50;;;;;;;41.17;20.23;;;;;;;;;;4965154;28;20501;-69
2022/12/14 08:55:19;;;;;;;40.63;19.93;;;;;;;;;;4947958;28;20049;-69
2022/12/14 08:57:47;;;;;;;42.80;21.33;;;;;;;;;;4947419;28;20089;-69
2022/12/14 09:00:15;;;;;;;45.50;21.53;;;;;;;;;;4964915;28;20042;-69
2022/12/14 09:02:41;;;;;;;47.83;22.53;;;;;;;;;;4947343;28;20103;-69
2022/12/14 09:05:11;;;;;;;43.90;22.17;;;;;;;;;;4965318;28;20496;-69
2022/12/14 09:07:36;;;;;;;44.50;23.33;;;;;;;;;;4946918;28;20494;-70
2022/12/14 09:10:02;;;;;;;47.27;22.97;;;;;;;;;;4947979;28;20031;-71
2022/12/14 09:12:29;;;;;;;41.87;22.50;;;;;;;;;;4964623;28;20042;-69
2022/12/14 09:14:54;;;;;;;39.90;22.07;;;;;;;;;;4965314;28;20038;-70
2022/12/14 09:17:20;;;;;;;41.20;20.53;;;;;;;;;;4964391;28;20297;-69
2022/12/14 09:19:45;;;;;;;43.83;22.27;;;;;;;;;;4943334;28;20042;-70
2022/12/14 09:22:13;;;;;;;40.33;21.53;;;;;;;;;;4943787;28;20027;-69
2022/12/14 09:24:38;;;;;;;39.67;21.80;;;;;;;;;;4959930;28;20604;-69
2022/12/14 09:27:07;;;;;;;38.57;20.93;;;;;;;;;;4943508;28;20046;-69
2022/12/14 09:29:35;;;;;;;40.80;20.97;;;;;;;;;;4961469;28;20039;-69
2022/12/14 09:32:02;;;;;;;39.03;21.17;;;;;;;;;;4944452;28;20042;-71
2022/12/14 09:34:28;;;;;;;39.07;21.87;;;;;;;;;;4961483;28;20034;-69
2022/12/14 09:36:53;;;;;;;43.47;23.03;;;;;;;;;;4943650;28;20038;-68
2022/12/14 09:39:18;;;;;;;45.80;22.80;;;;;;;;;;4961241;28;20826;-71
2022/12/14 09:41:44;;;;;;;42.63;22.70;;;;;;;;;;4943630;28;20480;-69
2022/12/14 09:44:30;;;;;;;46.80;23.47;;;;;;;;;;4961879;28;20149;-71
2022/12/14 09:47:09;;;;;;;51.97;25.20;;;;;;;;;;4961240;28;20119;-70
2022/12/14 09:49:47;;;;;;;49.70;25.83;;;;;;;;;;4961190;28;20042;-70
2022/12/14 09:52:15;;;;;;;48.80;25.30;;;;;;;;;;4961340;28;20095;-69
2022/12/14 09:54:41;;;;;;;51.47;25.30;;;;;;;;;;4960477;28;20081;-69
2022/12/14 09:57:13;;;;;;;44.97;22.87;;;;;;;;;;4943260;28;20081;-69
2022/12/14 09:59:38;;;;;;;49.97;24.90;;;;;;;;;;4959752;28;20034;-70
2022/12/14 10:02:04;;;;;;;46.37;25.60;;;;;;;;;;4961429;28;20115;-70
2022/12/14 10:04:42;;;;;;;47.73;25.80;;;;;;;;;;4942503;28;20271;-69
2022/12/14 10:07:18;;;;;;;53.20;25.47;;;;;;;;;;4960655;28;20297;-69
2022/12/14 10:09:52;;;;;;;54.90;26.20;;;;;;;;;;4960709;28;20413;-69
2022/12/14 10:12:33;;;;;;;49.83;25.93;;;;;;;;;;4959615;28;20030;-70
2022/12/14 10:15:00;;;;;;;49.37;26.53;;;;;;;;;;4960841;28;20395;-70
2022/12/14 10:17:26;;;;;;;52.30;27.40;;;;;;;;;;4960501;28;20035;-68
2022/12/14 10:19:58;;;;;;;52.00;26.63;;;;;;;;;;4947845;28;20038;-68
2022/12/14 10:22:26;;;;;;;49.17;26.67;;;;;;;;;;4941282;28;20422;-68
2022/12/14 10:24:59;;;;;;;46.20;26.43;;;;;;;;;;4940759;28;20104;-69
2022/12/14 10:27:26;;;;;;;51.57;27.90;;;;;;;;;;4923560;28;20511;-70
2022/12/14 10:29:59;;;;;;;51.70;28.00;;;;;;;;;;4940390;28;20039;-70
2022/12/14 10:32:47;;;;;;;55.03;26.90;;;;;;;;;;4940604;28;20026;-69
2022/12/14 10:35:13;;;;;;;51.97;27.57;;;;;;;;;;4904393;28;20062;-69
2022/12/14 10:37:43;;;;;;;50.03;26.93;;;;;;;;;;5005393;28;20033;-69
2022/12/14 10:40:08;;;;;;;49.87;26.90;;;;;;;;;;4941162;28;20294;-71
2022/12/14 10:42:48;;;;;;;50.37;27.80;;;;;;;;;;4940540;28;20502;-69
2022/12/14 10:45:32;;;;;;;49.70;26.43;;;;;;;;;;4941156;28;20095;-69
2022/12/14 10:48:10;;;;;;;58.17;30.87;;;;;;;;;;4959427;28;20045;-70
2022/12/14 10:50:47;;;;;;;51.87;27.57;;;;;;;;;;4942680;28;20034;-68
2022/12/14 10:53:14;;;;;;;49.23;28.07;;;;;;;;;;4960218;28;20081;-69
2022/12/14 10:55:40;;;;;;;53.60;29.70;;;;;;;;;;4960428;28;20041;-68
2022/12/14 10:58:05;;;;;;;49.00;28.10;;;;;;;;;;4959888;28;20484;-68
2022/12/14 11:00:30;;;;;;;46.80;27.63;;;;;;;;;;4959959;28;20512;-68
2022/12/14 11:02:56;;;;;;;52.50;29.47;;;;;;;;;;4960366;28;20046;-69
2022/12/14 11:05:31;;;;;;;43.90;27.30;;;;;;;;;;4960600;28;20690;-69
2022/12/14 11:07:56;;;;;;;48.80;27.30;;;;;;;;;;4959474;28;20444;-69
2022/12/14 11:10:26;;;;;;;46.73;28.13;;;;;;;;;;4942495;28;20031;-68
2022/12/14 11:12:57;;;;;;;45.47;26.33;;;;;;;;;;4960179;28;20195;-68
2022/12/14 11:15:24;;;;;;;45.07;25.63;;;;;;;;;;4960313;28;20034;-68
2022/12/14 11:17:58;;;;;;;42.97;22.67;;;;;;;;;;4959983;28;20038;-69
2022/12/14 11:20:26;;;;;;;41.53;20.67;;;;;;;;;;4959692;28;20607;-69
2022/12/14 11:22:54;;;;;;;34.63;20.37;;;;;;;;;;4942308;28;20332;-68
2022/12/14 11:25:30;;;;;;;37.27;20.63;;;;;;;;;;4960078;28;20037;-69
2022/12/14 11:27:58;;;;;;;42.40;22.50;;;;;;;;;;4960126;28;20045;-68
2022/12/14 11:30:23;;;;;;;36.87;21.20;;;;;;;;;;4959283;28;20031;-69
2022/12/14 11:32:49;;;;;;;34.97;19.20;;;;;;;;;;4942416;28;20031;-69
2022/12/14 11:35:18;;;;;;;37.73;19.77;;;;;;;;;;4959137;28;20030;-68
2022/12/14 11:37:43;;;;;;;31.70;18.40;;;;;;;;;;4942555;28;20183;-69
2022/12/14 11:40:17;;;;;;;32.47;17.90;;;;;;;;;;4959541;28;20252;-68
2022/12/14 11:42:46;;;;;;;31.53;17.53;;;;;;;;;;4959176;28;20040;-68
2022/12/14 11:45:26;;;;;;;26.87;15.73;;;;;;;;;;4959457;28;20117;-69
2022/12/14 11:48:09;;;;;;;28.77;16.43;;;;;;;;;;4959420;28;20034;-68
2022/12/14 11:50:37;;;;;;;30.47;15.73;;;;;;;;;;4959489;28;20470;-68
2022/12/14 11:53:06;;;;;;;27.10;15.90;;;;;;;;;;4958121;28;20220;-68
2022/12/14 11:55:35;;;;;;;28.37;16.47;;;;;;;;;;4959909;28;20544;-69
2022/12/14 11:58:01;;;;;;;27.10;15.73;;;;;;;;;;4959473;28;20500;-69
2022/12/14 12:00:33;;;;;;;26.30;15.30;;;;;;;;;;4958655;28;20095;-69
2022/12/14 12:03:02;;;;;;;24.55;14.23;;;;;;;;;;4958003;28;20026;-69
2022/12/14 12:05:30;;;;;;;29.93;16.80;;;;;;;;;;4957552;28;20542;-69
2022/12/14 12:07:56;;;;;;;25.30;13.70;;;;;;;;;;4958354;28;20141;-68
2022/12/14 12:10:23;;;;;;;25.00;12.33;;;;;;;;;;4959057;28;20035;-68
2022/12/14 12:12:51;;;;;;;19.80;10.83;;;;;;;;;;4959057;28;20031;-68
2022/12/14 12:15:20;;;;;;;20.73;10.93;;;;;;;;;;4958398;28;20041;-69
2022/12/14 12:17:53;;;;;;;26.48;12.82;;;;;;;;;;4958817;28;20091;-68
2022/12/14 12:20:24;;;;;;;20.17;10.63;;;;;;;;;;4959144;28;20446;-68
2022/12/14 12:22:51;;;;;;;22.60;11.83;;;;;;;;;;4959486;28;20184;-68
2022/12/14 12:25:18;;;;;;;24.07;12.07;;;;;;;;;;4958837;28;20599;-67
2022/12/14 12:27:51;;;;;;;21.60;11.43;;;;;;;;;;4959068;28;20526;-68
2022/12/14 12:30:28;;;;;;;21.00;12.50;;;;;;;;;;4959102;28;20205;-68
2022/12/14 12:32:55;;;;;;;21.57;12.40;;;;;;;;;;5031741;28;20112;-68
2022/12/14 12:35:24;;;;;;;26.70;13.83;;;;;;;;;;4959357;28;20026;-68
2022/12/14 12:38:05;;;;;;;21.90;12.43;;;;;;;;;;4958695;28;20256;-68
2022/12/14 12:40:37;;;;;;;22.17;12.47;;;;;;;;;;4958369;28;20255;-68
2022/12/14 12:43:04;;;;;;;25.70;12.45;;;;;;;;;;4958841;28;20034;-67
2022/12/14 12:45:43;;;;;;;26.30;12.60;;;;;;;;;;4941401;28;20038;-68
2022/12/14 12:48:24;;;;;;;21.73;12.97;;;;;;;;;;4939112;28;20046;-68
2022/12/14 12:50:51;;;;;;;24.63;13.03;;;;;;;;;;4937730;28;20043;-67
2022/12/14 12:53:20;;;;;;;23.63;13.53;;;;;;;;;;4939641;28;20042;-66
2022/12/14 12:55:49;;;;;;;22.03;13.63;;;;;;;;;;4943181;28;20045;-69
2022/12/14 12:58:28;;;;;;;20.60;13.30;;;;;;;;;;4941961;28;20569;-67
2022/12/14 13:00:56;;;;;;;22.07;13.33;;;;;;;;;;4941996;28;20645;-68
2022/12/14 13:03:25;;;;;;;27.47;14.30;;;;;;;;;;4942620;28;20039;-68
2022/12/14 13:05:52;;;;;;;22.37;13.67;;;;;;;;;;4942124;28;20171;-68
2022/12/14 13:08:25;;;;;;;24.80;13.67;;;;;;;;;;4942864;28;20438;-68
2022/12/14 13:10:54;;;;;;;27.50;13.50;;;;;;;;;;4942802;28;20120;-68
2022/12/14 13:13:30;;;;;;;22.37;12.10;;;;;;;;;;4942505;28;20067;-69
2022/12/14 13:16:02;;;;;;;24.03;13.40;;;;;;;;;;4955070;28;20038;-68
2022/12/14 13:18:31;;;;;;;21.23;13.03;;;;;;;;;;4943895;28;20031;-68
2022/12/14 13:21:02;;;;;;;22.90;12.77;;;;;;;;;;4961206;28;20048;-68
2022/12/14 13:23:27;;;;;;;24.33;13.40;;;;;;;;;;4943378;28;20135;-68
2022/12/14 13:25:55;;;;;;;21.23;12.40;;;;;;;;;;4961267;28;20042;-68
2022/12/14 13:28:42;;;;;;;20.47;12.17;;;;;;;;;;4961428;28;20103;-68
2022/12/14 13:31:08;;;;;;;26.33;12.97;;;;;;;;;;4943540;28;20053;-68
2022/12/14 13:33:44;;;;;;;21.63;12.87;;;;;;;;;;4961677;28;20544;-68
2022/12/14 13:36:16;;;;;;;21.63;12.70;;;;;;;;;;4961323;28;20034;-67
2022/12/14 13:38:54;;;;;;;23.10;13.10;;;;;;;;;;4961514;28;20075;-69
2022/12/14 13:41:38;;;;;;;19.67;11.97;;;;;;;;;;4943492;28;20133;-69
2022/12/14 13:44:03;;;;;;;20.53;12.17;;;;;;;;;;4961336;28;20111;-69
2022/12/14 13:46:29;;;;;;;23.73;11.17;;;;;;;;;;4960897;28;20136;-68
2022/12/14 13:48:59;;;;;;;24.67;12.97;;;;;;;;;;4960984;28;20046;-68
2022/12/14 13:51:27;;;;;;;23.07;13.17;;;;;;;;;;4943437;28;20038;-70
2022/12/14 13:53:55;;;;;;;26.77;13.23;;;;;;;;;;4943828;28;20125;-69
2022/12/14 13:56:24;;;;;;;31.60;14.00;;;;;;;;;;4961076;28;20085;-69
2022/12/14 13:58:50;;;;;;;23.83;13.30;;;;;;;;;;4960858;28;20069;-69
2022/12/14 14:01:21;;;;;;;24.50;14.63;;;;;;;;;;4961093;28;20031;-68
2022/12/14 14:03:47;;;;;;;30.80;15.20;;;;;;;;;;4960451;28;20035;-70
2022/12/14 14:06:21;;;;;;;26.53;16.43;;;;;;;;;;4943705;28;20050;-69
2022/12/14 14:08:48;;;;;;;24.43;14.53;;;;;;;;;;4960918;28;20038;-68
2022/12/14 14:11:21;;;;;;;24.27;14.53;;;;;;;;;;4960667;28;20049;-68
2022/12/14 14:13:47;;;;;;;25.88;13.38;;;;;;;;;;4960310;28;20144;-68
2022/12/14 14:16:13;;;;;;;25.57;13.67;;;;;;;;;;4943212;28;20049;-69
2022/12/14 14:19:11;;;;;;;27.03;13.87;;;;;;;;;;4960340;28;20285;-68
2022/12/14 14:21:38;;;;;;;23.40;13.47;;;;;;;;;;4970853;28;20039;-68
2022/12/14 14:24:15;;;;;;;25.57;13.17;;;;;;;;;;4960763;28;20034;-69
2022/12/14 14:26:41;;;;;;;25.20;14.50;;;;;;;;;;4960509;28;20113;-69
2022/12/14 14:29:07;;;;;;;24.43;13.37;;;;;;;;;;4960485;28;21026;-70
2022/12/14 14:31:50;;;;;;;21.97;13.03;;;;;;;;;;4960728;28;20043;-69
2022/12/14 14:34:21;;;;;;;20.73;12.93;;;;;;;;;;4942562;28;20045;-69
2022/12/14 14:36:48;;;;;;;22.38;13.15;;;;;;;;;;4942855;28;20535;-69
2022/12/14 14:39:28;;;;;;;22.23;13.37;;;;;;;;;;4960686;28;22187;-69
2022/12/14 14:41:54;;;;;;;23.23;13.07;;;;;;;;;;4943171;28;20111;-68
2022/12/14 14:44:34;;;;;;;25.10;12.97;;;;;;;;;;4960102;28;20035;-69
2022/12/14 14:47:02;;;;;;;33.35;17.63;;;;;;;;;;4960134;28;20119;-69